Can Warship 707 — CGBV — position and weather

sailwx.info

Track history (hours):
 
Tides and Currents Weather Stations Pressure Air Temp Water Temp Dewpoint Dewpoint Depression Visibility Wind Speed Wind Dir Waves Ship Positions

Can Warship 707

Last reported at 2016-Jun-26 20:08 UTC. Time now 2016-Jun-30 23:14 UTC.
Position N 45°18' W 073°56'.

Length 55 m; draft 5 m.

Type: Military. MMSI: 316200000.

Date/timePositionNaut miles runAvg speedWind from/ knotsBaromVisibWave heightAir tempDewpointWater temp
2016-Jun-26 20:08N 45°18' W 073°56'1 0.9
2016-Jun-26 19:32N 45°18' W 073°56'2 1.9
2016-Jun-26 18:33N 45°20' W 073°54'5 5.4
2016-Jun-26 17:33N 45°23' W 073°48'7 6.4
2016-Jun-26 16:27N 45°24' W 073°38'7 1.9
2016-Jun-26 12:33N 45°30' W 073°33'3 0.1
2016-Jun-24 16:33N 45°33' W 073°32'7 7.1
2016-Jun-24 15:33N 45°40' W 073°28'8 7.9
2016-Jun-24 14:33N 45°46' W 073°22'10 9.5
2016-Jun-24 13:33N 45°54' W 073°14'9 9.4
2016-Jun-24 12:33N 46°03' W 073°10'1 1.3
2016-Jun-24 11:33N 46°03' W 073°08'0 0.0
2016-Jun-24 10:33N 46°03' W 073°08'0 0.0
2016-Jun-24 09:33N 46°03' W 073°08'0 0.0
2016-Jun-24 08:33N 46°03' W 073°08'0 0.0
2016-Jun-24 07:33N 46°03' W 073°08'0 0.0
2016-Jun-24 04:33N 46°03' W 073°08'0 0.0
2016-Jun-24 03:33N 46°03' W 073°08'0 0.0
2016-Jun-24 02:33N 46°03' W 073°08'0 0.0
2016-Jun-24 01:33N 46°03' W 073°08'0 0.0
2016-Jun-24 00:33N 46°03' W 073°08'0 0.0
2016-Jun-23 23:33N 46°03' W 073°08'0 0.0
2016-Jun-23 22:33N 46°03' W 073°08'5 5.3
2016-Jun-23 21:33N 46°05' W 073°01'  
Track history (hours):
 
Tides and Currents Weather Stations Pressure Air Temp Water Temp Dewpoint Dewpoint Depression Visibility Wind Speed Wind Dir Waves Ship Positions

Can Warship 707

Last reported at 2016-Jun-26 20:08 UTC. Time now 2016-Jun-30 23:14 UTC.
Position N 45°18' W 073°56'.

Length 55 m; draft 5 m.

Type: Military. MMSI: 316200000.

Date/timePositionNaut miles runAvg speedWind from/ knotsBaromVisibWave heightAir tempDewpointWater temp
2016-Jun-26 20:08N 45°18' W 073°56'1 0.9
2016-Jun-26 19:32N 45°18' W 073°56'2 1.9
2016-Jun-26 18:33N 45°20' W 073°54'5 5.4
2016-Jun-26 17:33N 45°23' W 073°48'7 6.4
2016-Jun-26 16:27N 45°24' W 073°38'7 1.9
2016-Jun-26 12:33N 45°30' W 073°33'3 0.1
2016-Jun-24 16:33N 45°33' W 073°32'7 7.1
2016-Jun-24 15:33N 45°40' W 073°28'8 7.9
2016-Jun-24 14:33N 45°46' W 073°22'10 9.5
2016-Jun-24 13:33N 45°54' W 073°14'9 9.4
2016-Jun-24 12:33N 46°03' W 073°10'1 1.3
2016-Jun-24 11:33N 46°03' W 073°08'0 0.0
2016-Jun-24 10:33N 46°03' W 073°08'0 0.0
2016-Jun-24 09:33N 46°03' W 073°08'0 0.0
2016-Jun-24 08:33N 46°03' W 073°08'0 0.0
2016-Jun-24 07:33N 46°03' W 073°08'0 0.0
2016-Jun-24 04:33N 46°03' W 073°08'0 0.0
2016-Jun-24 03:33N 46°03' W 073°08'0 0.0
2016-Jun-24 02:33N 46°03' W 073°08'0 0.0
2016-Jun-24 01:33N 46°03' W 073°08'0 0.0
2016-Jun-24 00:33N 46°03' W 073°08'0 0.0
2016-Jun-23 23:33N 46°03' W 073°08'0 0.0
2016-Jun-23 22:33N 46°03' W 073°08'5 5.3
2016-Jun-23 21:33N 46°05' W 073°01'  

Dump ship's entire track history